Time;durP1;ratioP1;P1;durP2;ratioP2;P2;SDS_P1;SDS_P2;PMS_P1;PMS_P2;Temp;Humidity;BMP_temperature;BMP_pressure;BME280_temperature;BME280_humidity;BME280_pressure;Samples;Min_cycle;Max_cycle;Signal;HPM_P1;HPM_P2
2023/03/31 00:01:11;;;;;;;17.10;3.25;;;10.30;93.40;;;;;;4988170;28;20378;-83
2023/03/31 00:03:42;;;;;;;13.38;2.65;;;10.30;93.70;;;;;;4994216;28;20030;-83
2023/03/31 00:06:10;;;;;;;17.70;3.22;;;10.30;93.40;;;;;;4967525;28;20070;-84
2023/03/31 00:08:35;;;;;;;9.00;2.22;;;10.30;93.20;;;;;;4986165;28;20034;-83
2023/03/31 00:11:03;;;;;;;21.17;3.50;;;10.40;92.80;;;;;;4986950;28;20149;-83
2023/03/31 00:13:29;;;;;;;18.67;2.88;;;10.30;93.30;;;;;;4975061;28;20057;-84
2023/03/31 00:16:04;;;;;;;17.83;3.38;;;10.30;93.20;;;;;;4994087;28;20030;-84
2023/03/31 00:18:30;;;;;;;16.15;2.75;;;10.30;93.20;;;;;;4983802;28;20395;-83
2023/03/31 00:21:23;;;;;;;15.50;3.55;;;10.20;93.50;;;;;;4984369;28;20140;-84
2023/03/31 00:23:49;;;;;;;23.15;3.05;;;10.30;93.40;;;;;;4989363;28;20034;-83
2023/03/31 00:26:15;;;;;;;14.98;2.72;;;10.20;93.50;;;;;;4985378;28;20557;-83
2023/03/31 00:28:40;;;;;;;14.60;2.90;;;10.10;93.70;;;;;;4984188;28;20117;-84
2023/03/31 00:31:06;;;;;;;18.83;3.13;;;10.10;93.80;;;;;;4989604;28;20526;-83
2023/03/31 00:33:31;;;;;;;15.80;3.22;;;10.10;94.00;;;;;;4985901;28;20045;-84
2023/03/31 00:36:00;;;;;;;11.88;2.97;;;10.00;94.20;;;;;;4984126;28;20116;-83
2023/03/31 00:38:27;;;;;;;10.13;3.20;;;9.90;94.40;;;;;;4985664;28;20030;-84
2023/03/31 00:40:53;;;;;;;12.27;3.80;;;9.80;94.80;;;;;;4964024;28;20074;-83
2023/03/31 00:43:31;;;;;;;19.50;3.45;;;9.80;94.90;;;;;;4984079;28;20026;-83
2023/03/31 00:46:14;;;;;;;18.58;4.43;;;9.80;95.20;;;;;;4989816;28;20428;-83
2023/03/31 00:48:44;;;;;;;21.05;4.20;;;9.80;95.10;;;;;;4984273;28;20050;-83
2023/03/31 00:51:10;;;;;;;19.85;4.25;;;9.70;95.70;;;;;;4985668;28;20026;-84
2023/03/31 00:53:36;;;;;;;16.45;4.18;;;9.70;95.70;;;;;;4968688;28;20152;-84
2023/03/31 00:56:07;;;;;;;18.67;4.60;;;9.60;95.90;;;;;;4968624;28;20400;-84
2023/03/31 00:58:33;;;;;;;;;;;9.60;95.90;;;;;;4970106;28;20375;-84
2023/03/31 01:01:02;;;;;;;12.82;3.65;;;9.40;96.30;;;;;;4985609;28;20008;-83
2023/03/31 01:03:32;;;;;;;13.05;4.35;;;9.30;96.60;;;;;;4988189;28;20517;-84
2023/03/31 01:06:03;;;;;;;16.50;4.93;;;9.30;96.80;;;;;;4983915;28;20085;-83
2023/03/31 01:08:31;;;;;;;20.50;5.30;;;9.30;96.70;;;;;;4987946;28;20438;-83
2023/03/31 01:11:00;;;;;;;15.60;5.30;;;9.30;97.00;;;;;;4985984;28;20165;-83
2023/03/31 01:13:27;;;;;;;13.07;5.25;;;9.30;97.10;;;;;;4986941;28;20030;-84
2023/03/31 01:15:53;;;;;;;20.90;5.50;;;9.30;97.10;;;;;;4986042;28;20049;-83
2023/03/31 01:18:20;;;;;;;9.68;4.88;;;9.30;97.20;;;;;;4970386;28;20050;-84
2023/03/31 01:21:13;;;;;;;17.92;5.82;;;9.20;97.20;;;;;;4965847;28;20434;-84
2023/03/31 01:23:58;;;;;;;13.98;5.65;;;9.20;97.60;;;;;;4987661;28;20452;-83
2023/03/31 01:26:42;;;;;;;18.33;5.90;;;9.10;97.60;;;;;;4984693;28;20448;-84
2023/03/31 01:29:17;;;;;;;21.70;6.43;;;9.10;97.80;;;;;;4983064;28;20030;-84
2023/03/31 01:31:56;;;;;;;24.58;6.10;;;9.10;98.00;;;;;;4986397;28;20368;-84
2023/03/31 01:34:48;;;;;;;17.30;6.40;;;9.10;97.90;;;;;;4989500;28;20093;-84
2023/03/31 01:37:32;;;;;;;22.92;5.95;;;9.10;98.00;;;;;;4977695;28;20034;-84
2023/03/31 01:40:08;;;;;;;18.65;5.63;;;9.20;98.00;;;;;;4982941;28;20599;-83
2023/03/31 01:42:50;;;;;;;24.85;6.10;;;9.10;97.90;;;;;;4980546;28;20034;-83
2023/03/31 01:45:45;;;;;;;17.08;6.28;;;9.20;98.10;;;;;;4970478;28;20045;-84
2023/03/31 01:48:22;;;;;;;18.75;6.30;;;9.10;98.00;;;;;;4985857;28;20031;-84
2023/03/31 01:50:56;;;;;;;19.38;6.30;;;9.20;98.10;;;;;;4989398;28;20105;-84
2023/03/31 01:53:43;;;;;;;25.70;5.90;;;9.10;98.10;;;;;;4982602;28;20210;-84
2023/03/31 01:56:20;;;;;;;19.40;6.32;;;9.10;98.10;;;;;;4984917;28;20054;-84
2023/03/31 01:59:04;;;;;;;19.35;6.38;;;9.00;98.10;;;;;;4983382;28;20062;-83
2023/03/31 02:01:46;;;;;;;13.60;6.18;;;9.00;98.20;;;;;;4981266;28;20363;-84
2023/03/31 02:04:23;;;;;;;23.80;6.88;;;8.80;98.30;;;;;;4986766;28;20053;-84
2023/03/31 02:06:58;;;;;;;16.48;5.97;;;8.80;98.50;;;;;;4984737;28;20042;-83
2023/03/31 02:09:28;;;;;;;20.35;6.35;;;8.80;98.60;;;;;;4968887;28;20703;-84
2023/03/31 02:11:56;;;;;;;20.23;6.68;;;8.80;98.70;;;;;;4984296;28;20069;-84
2023/03/31 02:14:26;;;;;;;20.67;7.50;;;8.80;98.70;;;;;;4970006;28;20616;-84
2023/03/31 02:16:57;;;;;;;17.27;6.53;;;8.80;98.80;;;;;;4964398;28;20031;-84
2023/03/31 02:19:26;;;;;;;16.80;6.85;;;8.80;98.90;;;;;;4980086;28;20038;-84
2023/03/31 02:21:53;;;;;;;22.10;6.47;;;8.80;99.00;;;;;;4967180;28;20129;-84
2023/03/31 02:24:23;;;;;;;18.25;6.63;;;8.80;98.90;;;;;;4997970;28;20056;-84
2023/03/31 02:27:21;;;;;;;17.13;7.20;;;8.80;98.90;;;;;;4988507;28;20026;-84
2023/03/31 02:29:47;;;;;;;22.98;7.20;;;8.90;99.10;;;;;;4991543;28;20408;-84
2023/03/31 02:32:12;;;;;;;25.80;7.25;;;9.00;99.00;;;;;;4971377;28;20042;-84
2023/03/31 02:34:38;;;;;;;25.48;7.30;;;9.00;99.00;;;;;;4987269;28;20484;-84
2023/03/31 02:37:05;;;;;;;17.60;7.05;;;9.00;98.90;;;;;;4969055;28;20041;-85
2023/03/31 02:39:34;;;;;;;27.60;7.60;;;9.00;98.90;;;;;;4992737;28;20081;-84
2023/03/31 02:42:05;;;;;;;19.77;7.05;;;9.10;98.90;;;;;;4967814;28;20125;-84
2023/03/31 02:44:32;;;;;;;18.30;6.45;;;9.00;98.80;;;;;;4987181;28;20062;-85
2023/03/31 02:46:58;;;;;;;21.25;6.32;;;9.00;98.80;;;;;;4991285;28;20128;-84
2023/03/31 02:49:23;;;;;;;21.20;7.15;;;9.00;99.00;;;;;;4990983;28;20424;-84
2023/03/31 02:52:10;;;;;;;18.42;6.95;;;9.00;98.90;;;;;;4988787;28;20428;-84
2023/03/31 02:54:36;;;;;;;23.50;7.43;;;9.00;98.90;;;;;;4994282;28;20035;-85
2023/03/31 02:57:31;;;;;;;23.75;7.38;;;9.10;99.00;;;;;;4971958;28;20038;-85
2023/03/31 03:00:13;;;;;;;19.33;7.25;;;9.10;99.00;;;;;;4989356;28;20034;-84
2023/03/31 03:02:59;;;;;;;27.15;7.45;;;9.10;99.00;;;;;;4990000;28;20435;-84
2023/03/31 03:05:53;;;;;;;19.73;7.90;;;9.10;98.90;;;;;;4986171;28;20597;-84
2023/03/31 03:08:33;;;;;;;20.95;8.10;;;9.20;99.00;;;;;;4991061;28;20498;-84
2023/03/31 03:11:24;;;;;;;14.63;7.20;;;9.10;98.90;;;;;;4987091;28;20101;-84
2023/03/31 03:14:00;;;;;;;19.77;7.50;;;9.20;98.90;;;;;;4984354;28;20424;-84
2023/03/31 03:16:31;;;;;;;20.80;8.50;;;9.20;99.00;;;;;;4988465;28;20027;-84
2023/03/31 03:18:58;;;;;;;;;;;9.30;98.90;;;;;;4988764;28;20038;-85
2023/03/31 03:21:23;;;;;;;19.80;8.90;;;9.30;98.80;;;;;;4985944;28;19958;-84
2023/03/31 03:23:50;;;;;;;22.50;9.23;;;9.50;98.60;;;;;;4990003;28;20410;-84
2023/03/31 03:26:20;;;;;;;27.70;9.95;;;9.50;98.40;;;;;;4989487;28;20031;-84
2023/03/31 03:28:49;;;;;;;24.75;10.30;;;9.50;98.40;;;;;;4987781;28;20114;-84
2023/03/31 03:31:15;;;;;;;25.80;9.75;;;9.50;98.40;;;;;;4987101;28;20018;-84
2023/03/31 03:33:41;;;;;;;22.63;10.93;;;9.60;98.30;;;;;;4985515;28;20192;-84
2023/03/31 03:36:07;;;;;;;22.02;10.02;;;9.60;98.10;;;;;;4969093;28;20049;-84
2023/03/31 03:38:33;;;;;;;21.85;10.80;;;9.60;98.00;;;;;;4973300;28;20081;-84
2023/03/31 03:40:58;;;;;;;22.25;9.43;;;9.60;98.10;;;;;;4990899;28;20168;-85
2023/03/31 03:43:24;;;;;;;26.48;10.50;;;9.60;98.10;;;;;;4987079;28;20372;-84
2023/03/31 03:45:50;;;;;;;23.58;10.85;;;9.60;98.10;;;;;;4976809;28;20183;-84
2023/03/31 03:48:16;;;;;;;22.00;10.25;;;9.60;98.00;;;;;;4988627;28;20037;-85
2023/03/31 03:50:41;;;;;;;25.00;10.50;;;9.60;98.00;;;;;;4985453;28;20046;-84
2023/03/31 03:53:07;;;;;;;22.98;9.93;;;9.60;98.10;;;;;;4968937;28;20033;-84
2023/03/31 03:55:32;;;;;;;22.50;10.38;;;9.60;98.10;;;;;;4985238;28;20039;-84
2023/03/31 03:57:58;;;;;;;28.33;10.88;;;9.60;98.00;;;;;;4987647;28;20108;-84
2023/03/31 04:00:24;;;;;;;29.52;10.60;;;9.60;98.10;;;;;;4985847;28;20582;-85
2023/03/31 04:02:49;;;;;;;27.73;10.43;;;9.60;98.00;;;;;;4971399;28;20026;-84
2023/03/31 04:05:15;;;;;;;22.05;9.90;;;9.60;97.90;;;;;;4967806;28;20137;-85
2023/03/31 04:07:40;;;;;;;22.85;9.57;;;9.60;97.90;;;;;;4989295;28;20141;-85
2023/03/31 04:10:06;;;;;;;20.05;8.77;;;9.60;97.70;;;;;;4988006;28;20137;-85
2023/03/31 04:12:34;;;;;;;25.00;10.45;;;9.60;97.60;;;;;;4971941;28;20448;-83
2023/03/31 04:14:59;;;;;;;16.08;8.35;;;9.60;97.60;;;;;;4967543;28;20061;-84
2023/03/31 04:17:31;;;;;;;16.98;8.60;;;9.60;97.60;;;;;;4986337;28;20759;-84
2023/03/31 04:20:00;;;;;;;23.17;8.93;;;9.60;97.50;;;;;;4982450;28;20571;-84
2023/03/31 04:22:28;;;;;;;21.30;8.25;;;9.60;97.50;;;;;;4991402;28;20033;-84
2023/03/31 04:24:57;;;;;;;23.58;8.25;;;9.60;97.50;;;;;;4987530;28;20435;-84
2023/03/31 04:27:26;;;;;;;18.70;8.45;;;9.60;97.40;;;;;;4985956;28;20030;-85
2023/03/31 04:29:53;;;;;;;18.08;7.75;;;9.60;97.40;;;;;;5048907;22;20466;-89
2023/03/31 04:32:22;;;;;;;21.05;8.38;;;9.60;97.20;;;;;;5043327;28;20040;-89
2023/03/31 04:34:49;;;;;;;20.27;8.23;;;9.60;97.30;;;;;;5049636;28;20104;-89
2023/03/31 04:37:15;;;;;;;17.90;8.32;;;9.60;97.20;;;;;;5042150;22;20489;-81
2023/03/31 04:39:41;;;;;;;20.02;7.25;;;9.60;97.20;;;;;;5038778;28;20042;-83
2023/03/31 04:42:06;;;;;;;16.98;7.38;;;9.60;97.20;;;;;;5028386;28;20098;-82
2023/03/31 04:44:32;;;;;;;21.08;7.35;;;9.50;97.20;;;;;;5039695;28;20105;-83
2023/03/31 04:47:01;;;;;;;20.10;7.97;;;9.50;97.20;;;;;;5044938;28;20029;-82
2023/03/31 04:49:27;;;;;;;17.42;7.60;;;9.50;97.20;;;;;;5044463;28;20056;-82
2023/03/31 04:51:52;;;;;;;18.33;6.90;;;9.50;97.20;;;;;;5042475;28;20080;-82
2023/03/31 04:54:18;;;;;;;17.45;7.43;;;9.50;97.00;;;;;;5042712;28;20036;-82
2023/03/31 04:56:43;;;;;;;17.73;7.45;;;9.60;96.90;;;;;;5044782;28;20088;-82
2023/03/31 04:59:09;;;;;;;21.42;6.95;;;9.50;96.90;;;;;;5043952;28;20112;-83
2023/03/31 05:01:35;;;;;;;21.77;7.15;;;9.50;96.70;;;;;;5038203;28;20370;-83
2023/03/31 05:04:02;;;;;;;17.42;6.53;;;9.50;96.70;;;;;;5044626;28;20055;-83
2023/03/31 05:06:28;;;;;;;18.70;7.20;;;9.50;96.80;;;;;;5040827;28;20047;-82
2023/03/31 05:08:53;;;;;;;16.02;6.88;;;9.40;96.80;;;;;;5047289;28;20056;-83
2023/03/31 05:11:19;;;;;;;18.67;7.57;;;9.30;96.90;;;;;;5042948;28;20060;-84
2023/03/31 05:13:44;;;;;;;17.05;7.07;;;9.30;97.00;;;;;;5045812;28;20045;-83
2023/03/31 05:16:13;;;;;;;15.15;6.80;;;9.20;97.00;;;;;;5040866;28;20460;-83
2023/03/31 05:18:39;;;;;;;16.42;7.22;;;9.20;97.10;;;;;;5025018;28;20044;-82
2023/03/31 05:21:13;;;;;;;18.92;7.15;;;9.10;97.20;;;;;;5025065;28;20071;-83
2023/03/31 05:23:39;;;;;;;19.95;7.53;;;9.20;97.40;;;;;;5040142;28;20494;-82
2023/03/31 05:26:05;;;;;;;22.95;8.35;;;9.10;97.50;;;;;;5046916;28;20093;-82
2023/03/31 05:28:30;;;;;;;16.13;7.63;;;9.20;97.50;;;;;;5032162;28;20108;-83
2023/03/31 05:30:59;;;;;;;21.15;7.15;;;9.10;97.50;;;;;;5033977;28;20190;-82
2023/03/31 05:33:24;;;;;;;23.90;7.30;;;9.20;97.40;;;;;;5026488;28;20317;-79
2023/03/31 05:35:50;;;;;;;20.85;7.97;;;9.20;97.40;;;;;;5042395;28;20098;-80
2023/03/31 05:38:15;;;;;;;20.38;7.45;;;9.20;97.40;;;;;;5030365;28;20146;-79
2023/03/31 05:40:41;;;;;;;13.77;7.45;;;9.30;97.30;;;;;;5040052;28;20091;-80
2023/03/31 05:43:06;;;;;;;18.55;7.47;;;9.30;97.30;;;;;;5039723;28;20045;-79
2023/03/31 05:45:32;;;;;;;20.08;7.43;;;9.30;97.20;;;;;;5022733;28;20423;-79
2023/03/31 05:47:57;;;;;;;17.52;6.38;;;9.40;97.10;;;;;;5046933;28;20037;-80
2023/03/31 05:50:23;;;;;;;18.48;6.35;;;9.40;97.00;;;;;;5037480;28;20025;-81
2023/03/31 05:52:48;;;;;;;15.48;6.22;;;9.40;97.00;;;;;;5046865;28;20033;-80
2023/03/31 05:55:14;;;;;;;15.52;5.97;;;9.40;96.90;;;;;;5044984;28;20350;-80
2023/03/31 05:57:39;;;;;;;15.82;5.85;;;9.50;96.90;;;;;;5033552;28;20089;-80
2023/03/31 06:00:09;;;;;;;15.10;6.70;;;9.50;96.60;;;;;;5038130;28;20114;-77
2023/03/31 06:02:34;;;;;;;14.18;6.05;;;9.50;96.70;;;;;;5043242;28;20193;-79
2023/03/31 06:05:00;;;;;;;12.43;5.78;;;9.50;96.60;;;;;;5040653;28;20108;-79
2023/03/31 06:07:25;;;;;;;13.18;6.00;;;9.50;96.60;;;;;;5038330;28;20053;-80
2023/03/31 06:09:51;;;;;;;19.25;6.25;;;9.60;96.50;;;;;;5039201;28;20048;-79
2023/03/31 06:12:17;;;;;;;13.35;5.43;;;9.60;96.50;;;;;;5035043;28;20025;-79
2023/03/31 06:14:42;;;;;;;16.65;5.82;;;9.60;96.50;;;;;;5039561;28;20033;-79
2023/03/31 06:17:08;;;;;;;22.13;5.90;;;9.60;96.20;;;;;;5037737;28;20037;-79
2023/03/31 06:19:33;;;;;;;17.85;6.82;;;9.70;96.20;;;;;;5028722;28;20083;-80
2023/03/31 06:21:59;;;;;;;13.32;5.38;;;9.80;96.20;;;;;;5036004;28;20030;-80
2023/03/31 06:24:24;;;;;;;17.92;6.18;;;9.80;96.00;;;;;;5023911;28;20028;-81
2023/03/31 06:26:50;;;;;;;12.95;5.18;;;9.90;96.00;;;;;;5036804;28;20037;-80
2023/03/31 06:29:15;;;;;;;17.35;5.63;;;9.90;95.80;;;;;;5035174;28;20450;-78
2023/03/31 06:31:40;;;;;;;13.20;4.68;;;10.00;95.70;;;;;;5030780;28;20041;-80
2023/03/31 06:34:06;;;;;;;10.32;4.57;;;10.00;95.50;;;;;;5040994;28;20032;-80
2023/03/31 06:36:31;;;;;;;13.75;4.30;;;10.00;95.30;;;;;;5033156;28;20093;-82
2023/03/31 06:38:57;;;;;;;10.02;3.90;;;10.00;95.30;;;;;;5040766;28;20535;-80
2023/03/31 06:41:22;;;;;;;10.43;4.00;;;10.00;95.30;;;;;;5037340;28;20047;-80
2023/03/31 06:43:48;;;;;;;13.32;3.92;;;10.00;95.10;;;;;;5036881;28;20323;-78
2023/03/31 06:46:14;;;;;;;12.18;4.30;;;10.10;95.20;;;;;;5032952;28;20095;-79
2023/03/31 06:48:40;;;;;;;10.35;4.10;;;10.00;95.00;;;;;;5030864;28;20468;-80
2023/03/31 06:51:06;;;;;;;7.45;3.50;;;10.00;95.00;;;;;;5032942;28;20481;-80
2023/03/31 06:53:33;;;;;;;11.18;3.92;;;10.00;95.10;;;;;;5038953;28;20391;-80
2023/03/31 06:55:59;;;;;;;11.82;3.35;;;10.00;95.10;;;;;;5040906;28;20418;-81
2023/03/31 06:58:24;;;;;;;12.05;3.97;;;10.00;95.30;;;;;;5043360;28;20048;-79
2023/03/31 07:00:51;;;;;;;11.32;3.63;;;10.00;95.50;;;;;;5041179;28;20037;-78
2023/03/31 07:03:17;;;;;;;8.55;3.47;;;9.90;95.80;;;;;;5039536;28;20029;-79
2023/03/31 07:05:48;;;;;;;7.95;3.15;;;9.90;96.10;;;;;;5041123;28;20097;-80
2023/03/31 07:08:14;;;;;;;;;;;9.80;96.30;;;;;;5053571;28;20422;-81
2023/03/31 07:10:39;;;;;;;12.50;3.42;;;9.80;96.60;;;;;;5044668;28;19982;-81
2023/03/31 07:13:05;;;;;;;10.60;3.75;;;9.80;96.80;;;;;;5043229;28;20101;-79
2023/03/31 07:15:30;;;;;;;13.10;3.85;;;9.70;97.00;;;;;;5045695;28;20437;-85
2023/03/31 07:18:00;;;;;;;11.52;3.40;;;9.70;97.20;;;;;;5055627;28;20121;-85
2023/03/31 07:20:27;;;;;;;10.88;3.10;;;9.70;97.50;;;;;;5038749;28;20044;-85
2023/03/31 07:22:52;;;;;;;10.57;3.17;;;9.70;97.60;;;;;;5050595;28;20170;-81
2023/03/31 07:25:18;;;;;;;14.73;3.47;;;9.70;97.70;;;;;;5049429;28;20094;-81
2023/03/31 07:27:43;;;;;;;10.90;3.33;;;9.70;97.80;;;;;;5043661;28;20140;-84
2023/03/31 07:30:18;;;;;;;13.07;3.63;;;9.70;97.90;;;;;;5043789;28;20056;-84
2023/03/31 07:32:50;;;;;;;10.73;3.63;;;9.70;98.00;;;;;;5046552;28;20496;-83
2023/03/31 07:35:17;;;;;;;10.25;3.42;;;9.70;98.10;;;;;;5045444;28;20040;-84
2023/03/31 07:37:45;;;;;;;12.20;3.33;;;9.80;98.20;;;;;;5042809;28;20048;-84
2023/03/31 07:40:23;;;;;;;10.73;3.38;;;9.80;98.20;;;;;;5043135;28;20453;-81
2023/03/31 07:42:51;;;;;;;13.57;3.40;;;9.70;98.30;;;;;;5040410;28;20387;-83
2023/03/31 07:45:17;;;;;;;11.18;3.22;;;9.70;98.40;;;;;;5041098;28;20381;-84
2023/03/31 07:47:45;;;;;;;9.63;3.25;;;9.80;98.50;;;;;;5030906;28;20139;-87
2023/03/31 07:50:11;;;;;;;12.40;3.38;;;9.70;98.40;;;;;;5026134;28;20454;-82
2023/03/31 07:52:37;;;;;;;11.38;3.20;;;9.70;98.30;;;;;;5038604;28;20449;-85
2023/03/31 07:55:03;;;;;;;10.50;2.95;;;9.80;98.30;;;;;;5036999;28;20021;-85
2023/03/31 07:57:28;;;;;;;6.32;2.50;;;9.70;98.30;;;;;;5035453;28;20121;-86
2023/03/31 07:59:54;;;;;;;13.30;3.13;;;9.70;98.20;;;;;;5049538;28;20469;-82
2023/03/31 08:02:20;;;;;;;11.40;2.80;;;9.80;98.30;;;;;;5041052;28;20085;-86
2023/03/31 08:04:46;;;;;;;15.90;3.22;;;9.70;98.20;;;;;;5038682;28;20029;-84
2023/03/31 08:07:13;;;;;;;7.63;2.55;;;9.80;98.50;;;;;;5038732;28;20021;-83
2023/03/31 08:09:40;;;;;;;6.55;2.67;;;9.80;98.50;;;;;;5039168;28;20827;-84
2023/03/31 08:12:05;;;;;;;13.18;2.97;;;9.70;98.50;;;;;;5044129;28;20443;-85
2023/03/31 08:14:31;;;;;;;15.25;3.08;;;9.70;98.60;;;;;;5040195;28;20044;-86
2023/03/31 08:16:59;;;;;;;11.88;2.75;;;9.70;98.60;;;;;;5043315;28;20083;-87
2023/03/31 08:19:25;;;;;;;6.80;2.53;;;9.70;98.60;;;;;;5038543;28;20037;-84
2023/03/31 08:21:51;;;;;;;8.38;2.50;;;9.80;98.70;;;;;;5038003;28;20032;-85
2023/03/31 08:24:16;;;;;;;9.93;3.42;;;9.70;98.60;;;;;;5036110;28;20029;-85
2023/03/31 08:26:42;;;;;;;11.13;2.72;;;9.70;98.70;;;;;;5038039;28;20052;-86
2023/03/31 08:29:07;;;;;;;9.40;2.67;;;9.70;98.80;;;;;;5033599;28;20047;-85
2023/03/31 08:31:33;;;;;;;8.63;2.58;;;9.80;99.00;;;;;;5041790;28;20040;-84
2023/03/31 08:33:58;;;;;;;6.50;2.40;;;9.80;99.00;;;;;;5047779;28;20032;-85
2023/03/31 08:36:25;;;;;;;13.02;2.92;;;9.80;98.90;;;;;;5040314;28;20430;-85
2023/03/31 08:38:52;;;;;;;8.60;2.92;;;9.80;99.00;;;;;;5037611;28;20054;-86
2023/03/31 08:41:18;;;;;;;10.05;2.83;;;9.90;99.00;;;;;;5046533;28;20029;-86
2023/03/31 08:43:46;;;;;;;7.40;3.00;;;10.00;99.10;;;;;;5041797;28;20088;-83
2023/03/31 08:46:16;;;;;;;10.02;2.90;;;10.00;98.90;;;;;;5044532;28;20037;-85
2023/03/31 08:48:47;;;;;;;7.78;2.70;;;10.00;99.00;;;;;;5037768;28;20093;-86
2023/03/31 08:51:21;;;;;;;9.07;3.10;;;10.10;99.10;;;;;;5029712;28;20032;-84
2023/03/31 08:53:51;;;;;;;10.93;3.13;;;10.20;99.10;;;;;;5043149;28;20030;-85
2023/03/31 08:56:19;;;;;;;10.38;3.80;;;10.20;99.00;;;;;;5033418;28;20116;-83
2023/03/31 08:58:47;;;;;;;10.23;3.90;;;10.10;98.80;;;;;;5034217;28;20056;-85
2023/03/31 09:01:37;;;;;;;10.40;3.70;;;10.20;99.00;;;;;;5034129;28;20169;-86
2023/03/31 09:04:26;;;;;;;6.20;2.97;;;10.10;98.80;;;;;;5035579;28;20044;-85
2023/03/31 09:07:25;;;;;;;7.32;3.22;;;10.10;98.70;;;;;;5034208;28;20417;-85
2023/03/31 09:10:04;;;;;;;8.48;3.25;;;10.20;98.90;;;;;;5038712;28;20029;-85
2023/03/31 09:12:47;;;;;;;9.85;3.47;;;10.30;98.90;;;;;;5044306;28;20056;-85
2023/03/31 09:15:42;;;;;;;8.32;3.55;;;10.30;98.80;;;;;;5040294;28;20025;-85
2023/03/31 09:18:39;;;;;;;7.13;3.33;;;10.40;98.70;;;;;;5030498;28;20125;-84
2023/03/31 09:21:11;;;;;;;8.55;3.15;;;10.60;98.80;;;;;;5023302;28;20045;-84
2023/03/31 09:23:50;;;;;;;9.45;2.83;;;10.70;98.60;;;;;;5040139;28;20040;-85
2023/03/31 09:26:52;;;;;;;8.27;2.90;;;10.70;98.30;;;;;;5042791;28;20036;-86
2023/03/31 09:29:28;;;;;;;7.40;2.50;;;10.80;97.60;;;;;;5031011;28;20064;-83
2023/03/31 09:31:54;;;;;;;10.70;3.00;;;10.80;97.80;;;;;;5046866;28;20033;-85
2023/03/31 09:34:30;;;;;;;7.18;2.90;;;10.70;97.60;;;;;;5045416;28;20025;-85
2023/03/31 09:36:55;;;;;;;4.45;2.15;;;10.80;98.10;;;;;;5042617;28;20094;-85
2023/03/31 09:39:21;;;;;;;6.95;2.72;;;10.60;97.80;;;;;;5043067;28;20045;-84
2023/03/31 09:41:49;;;;;;;6.88;2.50;;;10.60;98.00;;;;;;5047195;28;20040;-84
2023/03/31 09:44:38;;;;;;;9.70;2.67;;;10.60;97.80;;;;;;5044190;28;20484;-85
2023/03/31 09:47:09;;;;;;;7.05;2.90;;;10.80;98.10;;;;;;5046892;28;20025;-85
2023/03/31 09:49:36;;;;;;;7.05;2.80;;;11.10;98.20;;;;;;5052113;28;20108;-85
2023/03/31 09:52:24;;;;;;;8.15;2.95;;;11.10;98.20;;;;;;5045602;28;20025;-85
2023/03/31 09:54:53;;;;;;;8.45;2.75;;;11.10;97.70;;;;;;5042087;28;20104;-85
2023/03/31 09:57:27;;;;;;;5.15;2.30;;;11.20;97.70;;;;;;5046682;28;20029;-86
2023/03/31 09:59:52;;;;;;;9.00;2.85;;;11.00;97.20;;;;;;5048350;28;20556;-83
2023/03/31 10:02:34;;;;;;;5.93;1.80;;;11.10;97.40;;;;;;5051992;28;20029;-84
2023/03/31 10:05:00;;;;;;;5.70;2.45;;;11.10;97.40;;;;;;5028646;28;20125;-83
2023/03/31 10:07:25;;;;;;;6.38;2.22;;;11.10;97.40;;;;;;5031421;28;20214;-83
2023/03/31 10:09:53;;;;;;;6.03;2.00;;;11.10;97.10;;;;;;5046250;28;20041;-84
2023/03/31 10:12:23;;;;;;;8.23;2.17;;;11.30;97.30;;;;;;5046613;28;20196;-85
2023/03/31 10:14:50;;;;;;;7.00;2.22;;;11.30;97.10;;;;;;5038832;28;20050;-84
2023/03/31 10:17:26;;;;;;;5.70;1.92;;;11.20;97.10;;;;;;5046089;28;20033;-82
2023/03/31 10:20:06;;;;;;;6.57;1.67;;;11.10;96.40;;;;;;5046452;28;20049;-83
2023/03/31 10:22:32;;;;;;;9.13;1.83;;;11.20;96.80;;;;;;5025913;28;20045;-81
2023/03/31 10:25:20;;;;;;;6.53;1.98;;;11.10;96.40;;;;;;5028594;28;20060;-81
2023/03/31 10:27:48;;;;;;;7.40;2.00;;;11.10;96.70;;;;;;5023433;28;20039;-86
2023/03/31 10:30:22;;;;;;;4.05;1.55;;;10.90;96.80;;;;;;5023313;28;20036;-81
2023/03/31 10:32:48;;;;;;;5.95;2.00;;;10.90;97.00;;;;;;5044988;28;20136;-84
2023/03/31 10:35:23;;;;;;;7.30;1.67;;;10.90;97.10;;;;;;5043243;28;20215;-83
2023/03/31 10:37:53;;;;;;;8.55;1.88;;;10.80;97.30;;;;;;5040211;28;20051;-84
2023/03/31 10:40:22;;;;;;;6.97;1.80;;;10.80;97.70;;;;;;5029809;28;20128;-82
2023/03/31 10:43:10;;;;;;;8.65;1.90;;;10.70;97.50;;;;;;5048605;28;20028;-82
2023/03/31 10:45:40;;;;;;;5.85;1.30;;;10.60;97.30;;;;;;5043789;28;20174;-83
2023/03/31 10:48:22;;;;;;;8.63;2.23;;;10.60;97.70;;;;;;5047583;28;20052;-85
2023/03/31 10:50:48;;;;;;;11.05;2.45;;;10.60;97.70;;;;;;5041283;28;20354;-84
2023/03/31 10:53:15;;;;;;;5.00;1.85;;;10.50;97.90;;;;;;5048695;28;20104;-85
2023/03/31 10:56:08;;;;;;;8.95;2.13;;;10.50;98.10;;;;;;5045410;28;20037;-83
2023/03/31 10:58:45;;;;;;;8.57;2.40;;;10.50;98.20;;;;;;5046407;28;20123;-84
2023/03/31 11:01:24;;;;;;;5.50;1.98;;;10.50;98.30;;;;;;5038207;28;20438;-84
2023/03/31 11:04:17;;;;;;;6.85;2.08;;;10.40;98.20;;;;;;5045638;28;20104;-83
2023/03/31 11:07:29;;;;;;;7.47;2.28;;;10.50;98.40;;;;;;5032058;28;20461;-83
2023/03/31 11:09:58;;;;;;;6.53;1.95;;;10.50;98.40;;;;;;4967339;28;20042;-83
2023/03/31 11:12:32;;;;;;;7.40;2.20;;;10.50;98.50;;;;;;5032140;28;20136;-88
2023/03/31 11:15:18;;;;;;;7.38;2.80;;;10.50;98.50;;;;;;5041448;28;20096;-84
2023/03/31 11:18:14;;;;;;;7.22;2.80;;;10.40;98.40;;;;;;5028408;28;20370;-82
2023/03/31 11:21:11;;;;;;;6.25;3.00;;;10.40;98.50;;;;;;5044213;28;20124;-82
2023/03/31 11:23:50;;;;;;;6.72;2.55;;;10.30;98.20;;;;;;5044685;28;20036;-81
2023/03/31 11:26:25;;;;;;;8.85;3.25;;;10.30;98.30;;;;;;5043940;28;20048;-82
2023/03/31 11:29:30;;;;;;;8.70;3.47;;;10.40;98.40;;;;;;5044270;28;20025;-82
2023/03/31 11:32:22;;;;;;;6.35;3.00;;;10.40;98.40;;;;;;5047949;28;20496;-81
2023/03/31 11:35:15;;;;;;;7.68;3.20;;;10.30;98.30;;;;;;5049311;28;20146;-77
2023/03/31 11:38:07;;;;;;;6.40;3.10;;;10.40;98.40;;;;;;5031201;28;20048;-80
2023/03/31 11:40:57;;;;;;;8.23;3.20;;;10.30;98.30;;;;;;5046743;28;20048;-82
2023/03/31 11:43:35;;;;;;;8.90;3.42;;;10.30;98.20;;;;;;5043398;28;20411;-81
2023/03/31 11:46:08;;;;;;;8.32;3.60;;;10.40;98.40;;;;;;5042021;28;20037;-82
2023/03/31 11:48:56;;;;;;;8.75;3.50;;;10.40;98.40;;;;;;5045883;28;20385;-82
2023/03/31 11:51:42;;;;;;;10.50;4.00;;;10.40;98.20;;;;;;5048651;28;20030;-81
2023/03/31 11:54:33;;;;;;;8.85;3.28;;;10.50;98.20;;;;;;5043663;28;20033;-80
2023/03/31 11:57:04;;;;;;;9.90;3.53;;;10.60;98.30;;;;;;5051111;28;20371;-80
2023/03/31 11:59:31;;;;;;;5.75;3.20;;;10.90;98.00;;;;;;5045768;28;20041;-80
2023/03/31 12:02:03;;;;;;;9.38;3.30;;;11.10;97.80;;;;;;5040898;28;20080;-80
2023/03/31 12:04:42;;;;;;;6.93;3.25;;;11.10;97.00;;;;;;5039126;28;20445;-81
2023/03/31 12:07:25;;;;;;;7.13;2.97;;;11.10;96.90;;;;;;5042881;28;20035;-81
2023/03/31 12:10:17;;;;;;;8.82;3.15;;;11.30;97.10;;;;;;5039619;28;20035;-80
2023/03/31 12:12:58;;;;;;;5.78;2.17;;;11.50;96.50;;;;;;5043488;28;20353;-79
2023/03/31 12:15:26;;;;;;;4.18;2.30;;;11.60;96.20;;;;;;5038481;28;20037;-80
2023/03/31 12:18:24;;;;;;;6.13;2.40;;;11.60;96.20;;;;;;5047908;28;20033;-80
2023/03/31 12:20:54;;;;;;;5.70;2.15;;;11.60;95.50;;;;;;4987351;28;20120;-80
2023/03/31 12:23:25;;;;;;;5.18;2.40;;;11.70;95.60;;;;;;5041711;28;20095;-79
2023/03/31 12:25:59;;;;;;;;;;;11.80;95.50;;;;;;5045592;28;20029;-80
2023/03/31 12:28:26;;;;;;;4.68;1.65;;;11.70;94.90;;;;;;5047754;28;20321;-80
2023/03/31 12:30:54;;;;;;;4.25;1.60;;;11.70;95.10;;;;;;5045619;28;20213;-80
2023/03/31 12:33:33;;;;;;;6.50;2.17;;;11.70;95.10;;;;;;5048176;28;20103;-80
2023/03/31 12:36:29;;;;;;;4.78;1.90;;;11.70;95.10;;;;;;5040182;28;20140;-79
2023/03/31 12:39:00;;;;;;;8.60;2.08;;;11.50;94.90;;;;;;5051323;28;20044;-79
2023/03/31 12:42:04;;;;;;;6.35;1.90;;;11.50;94.70;;;;;;5050903;28;20200;-79
2023/03/31 12:44:49;;;;;;;4.78;1.65;;;11.50;95.10;;;;;;4974188;28;20050;-79
2023/03/31 12:47:41;;;;;;;4.13;1.88;;;11.40;94.80;;;;;;4977658;28;20041;-80
2023/03/31 12:50:18;;;;;;;5.28;1.83;;;11.60;95.10;;;;;;4999764;28;20504;-78
2023/03/31 12:52:51;;;;;;;3.05;1.67;;;11.60;93.90;;;;;;5046742;28;20041;-80
2023/03/31 12:55:32;;;;;;;4.90;1.98;;;11.80;94.20;;;;;;5047019;28;20044;-79
2023/03/31 12:58:35;;;;;;;3.20;1.67;;;11.90;93.80;;;;;;5040476;28;20090;-80
2023/03/31 13:01:06;;;;;;;5.03;1.77;;;11.80;93.00;;;;;;5038709;28;20025;-80
2023/03/31 13:03:51;;;;;;;2.83;1.60;;;12.00;93.40;;;;;;5039985;28;20028;-79
2023/03/31 13:06:40;;;;;;;4.07;1.70;;;12.10;93.30;;;;;;5042063;28;20033;-80
2023/03/31 13:09:14;;;;;;;5.07;2.00;;;12.30;93.00;;;;;;5042964;28;20024;-80
2023/03/31 13:11:46;;;;;;;5.50;1.67;;;12.30;92.50;;;;;;5046313;28;20139;-81
2023/03/31 13:14:37;;;;;;;3.10;1.50;;;12.50;91.90;;;;;;5045282;28;20029;-79